Scurry, Texas
Current Conditions -  °F | °C
As of 9:53 AM on Saturday 25 Oct 2014 (Local Time) from KTRL Reporting Station
Clear Clear  
Wind Chill: 23°   Ceiling: Unl
Heat Index: 23°   Visibility: 10mi
Dew Point: 16°   Wind: 9mph
Humidity: 64%   Direction: 200°SSW
Pressure: 30.17"   Gusts: NA
Location:  32.52°N, 96.38°W
Report Text: KTRL 251453Z AUTO 20008KT 10SM CLR 23/16 A3017 RMK AO2 SLP210 T02280156 52009
Loading
Personal Weather Stations






























Interactive Weather Map
Tropical Storm Tracking
New forecast layout! Learn more

10-Day Weather Forecast

Advertisements
Track Severe Weather on mobile